Current Weather Conditions from Arkansas, Oklahoma, Missouri & Kansas

As well as selected U.S. cities associated with XNA Flights


KVBT - Bentonville Arkansas, Airport
Updated: Wed, Dec-Wed-2019 9:56am
Clear
Clear
 Wind from SSW
Wind: SSW 8 mph , 13 km/h
Temperature: 37°F , 3°C
Wind Chill: 31°F , -1°C
Dew Point: 25°F , -4°C
Humidity: 60%
Barometer: 30.53 inHg , 1033.9 hPa
Clouds: Clear
Visibility: 10 miles , 16 km
2019/12/11 15:56 KVBT 111556Z AUTO 21007KT 10SM CLR 03/M04 A3053 RMK AO2 SLP353 T00331039 TSNO
KROG - Rogers Arkansas, Airport
Updated: Wed, Dec-Wed-2019 9:58am
Clear
Clear
 Wind from SW
Wind: SW 13 mph , 20 km/h
Temperature: 39°F , 4°C
Wind Chill: 31°F , -1°C
Dew Point: 21°F , -6°C
Humidity: 48%
Barometer: 30.51 inHg , 1033.2 hPa
Clouds: Clear
Visibility: 10 miles , 16 km
2019/12/11 15:58 KROG 111558Z 22011KT 10SM CLR 04/M06 A3051 RMK AO2 SLP342 T00391056
KXNA - Northwest Arkansas Regional Airport
Updated: Wed, Dec-Wed-2019 9:53am
Clear
Clear
 Wind from SSW
Wind: SSW 7 mph , 11 km/h
Temperature: 37°F , 3°C
Wind Chill: 32°F , 0°C
Dew Point: 25°F , -4°C
Humidity: 60%
Barometer: 30.52 inHg , 1033.5 hPa
Clouds: Clear
Visibility: 10 miles , 16 km
2019/12/11 15:53 KXNA 111553Z 21006KT 10SM CLR 03/M04 A3052 RMK AO2 SLP344 T00331044
 
KSLG - Siloam Spring Arkansas, Airport
Updated: Wed, Dec-Wed-2019 9:56am
Clear
Clear
 Wind from SW
Wind: SW 9 mph , 15 km/h
Temperature: 37°F , 3°C
Wind Chill: 30°F , -1°C
Dew Point: 27°F , -3°C
Humidity: 65%
Barometer: 30.53 inHg , 1033.9 hPa
Clouds: Clear
Visibility: 10 miles , 16 km
2019/12/11 15:56 KSLG 111556Z AUTO 22008KT 10SM CLR 03/M03 A3053 RMK AO2 SLP347 T00331033 TSNO
KASG - Springdale, Arkansas, Airport
Updated: Wed, Dec-Wed-2019 9:48am
Clear
Clear
 Wind from SW
Wind: SW 7 mph , 11 km/h
Temperature: 39°F , 4°C
Wind Chill: 34°F , 1°C
Dew Point: 23°F , -5°C
Humidity: 52%
Barometer: 30.53 inHg , 1033.9 hPa
Clouds: Clear
Visibility: 10 miles , 16 km
2019/12/11 15:48 KASG 111548Z 22006KT 10SM CLR 04/M05 A3053
KFYV - Fayetteville Arkansas, Airport
Updated: Wed, Dec-Wed-2019 9:53am
Clear
Clear
 Wind from calm
Wind: Calm
Temperature: 39°F , 4°C
Dew Point: 27°F , -3°C
Humidity: 61%
Barometer: 30.52 inHg , 1033.5 hPa
Clouds: Clear
Visibility: 10 miles , 16 km
2019/12/11 15:53 KFYV 111553Z 00000KT 10SM CLR 04/M03 A3052 RMK AO2 SLP345 T00441028
 
KHRO - Harrison, Arkansas
Updated: Wed, Dec-Wed-2019 9:53am
Clear
Clear
 Wind from SE
Wind: SE 5 mph , 7 km/h
Temperature: 41°F , 5°C
Wind Chill: 38°F , 3°C
Dew Point: 25°F , -4°C
Humidity: 53%
Barometer: 30.50 inHg , 1032.8 hPa
Clouds: Clear
Visibility: 10 miles , 16 km
2019/12/11 15:53 KHRO 111553Z AUTO 13004KT 10SM CLR 05/M04 A3050 RMK AO2 SLP337 T00501044
KFLP - Flippin, Arkansas
Updated: Wed, Dec-Wed-2019 9:56am
Clear
Clear
 Wind from calm
Wind: Calm
Temperature: 36°F , 2°C
Dew Point: 25°F , -4°C
Humidity: 65%
Barometer: 30.55 inHg , 1034.5 hPa
Clouds: Clear
Visibility: 10 miles , 16 km
2019/12/11 15:56 KFLP 111556Z AUTO 00000KT 10SM CLR 02/M04 A3055 RMK AO2 SLP349 T00171039 FZRANO
KBPK - Mountain Home, Arkansas
Updated: Wed, Dec-Wed-2019 9:53am
Clear
Clear
 Wind from SW
Wind: SW 3 mph , 6 km/h
Temperature: 36°F , 2°C
Dew Point: 23°F , -5°C
Humidity: 60%
Barometer: 30.52 inHg , 1033.5 hPa
Clouds: Clear
Visibility: 10 miles , 16 km
2019/12/11 15:53 KBPK 111553Z AUTO 23003KT 10SM CLR 02/M05 A3052 RMK AO2 SLP342 T00221050
 
KCCA - Clinton, Arkansas
Updated: Wed, Dec-Wed-2019 9:55am
Clear
Clear
 Wind from calm
Wind: Calm
Temperature: 34°F , 1°C
Dew Point: 25°F , -4°C
Humidity: 70%
Barometer: 30.58 inHg , 1035.6 hPa
Clouds: Clear
Visibility: 10 miles , 16 km
2019/12/11 15:55 KCCA 111555Z AUTO 00000KT 10SM CLR 01/M04 A3058 RMK AO2
KRUE - Russellville, Arkansas
Updated: Wed, Dec-Wed-2019 9:53am
Clear
Clear
 Wind from calm
Wind: Calm
Temperature: 37°F , 3°C
Dew Point: 28°F , -2°C
Humidity: 70%
Barometer: 30.58 inHg , 1035.6 hPa
Clouds: Clear
Visibility: 10 miles , 16 km
2019/12/11 15:53 KRUE 111553Z AUTO 00000KT 10SM CLR 03/M02 A3058 RMK AO2 SLP355 T00281017
KBVX - Batesville, Arkansa
Updated: Wed, Dec-Wed-2019 9:56am
Clear
Clear
 Wind from SSE
Wind: SSE 3 mph , 6 km/h
Temperature: 41°F , 5°C
Dew Point: 23°F , -5°C
Humidity: 49%
Barometer: 30.58 inHg , 1035.6 hPa
Clouds: Clear
Visibility: 10 miles , 16 km
2019/12/11 15:56 KBVX 111556Z AUTO 16003KT 10SM CLR 05/M05 A3058 RMK AO2 SLP360 T00501050
 
KBYH - Blytheville, Arkansas
Updated: Fri, Dec-Fri-2019 3:50pm
NOT Current
Haze, Clear
Haze, Clear
 Wind from NNE
Wind: NNE 18 mph , 30 km/h, Gust: 28 mph , 44 km/h
Temperature: 52°F , 11°C
Dew Point: 43°F , 6°C
Humidity: 72%
Barometer: 30.19 inHg , 1022.4 hPa
Summary: Haze
Clouds: Clear
Visibility: 6 miles , 10 km
2019/12/06 21:50 KBYH 062150Z 02016G24KT 6SM HZ SKC 11/06 A3019 RMK LAST
KM19 - Newport, Arkansas
Updated: Wed, Dec-Wed-2019 9:56am
Clear
Clear
 Wind from S
Wind: S 6 mph , 9 km/h
Temperature: 37°F , 3°C
Wind Chill: 32°F , 0°C
Dew Point: 30°F , -1°C
Humidity: 75%
Barometer: 30.60 inHg , 1036.2 hPa
Clouds: Clear
Visibility: 10 miles , 16 km
2019/12/11 15:56 KM19 111556Z AUTO 19005KT 10SM CLR 03/M01 A3060 RMK AO2 SLP363 T00281006
KSRC - Searcy, Arkansas
Updated: Wed, Dec-Wed-2019 9:56am
Clear
Clear
 Wind from SSE
Wind: SSE 5 mph , 7 km/h
Temperature: 37°F , 3°C
Wind Chill: 33°F , 1°C
Dew Point: 30°F , -1°C
Humidity: 75%
Barometer: 30.60 inHg , 1036.2 hPa
Clouds: Clear
Visibility: 10 miles , 16 km
2019/12/11 15:56 KSRC 111556Z AUTO 16004KT 10SM CLR 03/M01 A3060 RMK AO2 SLPNO T00331006
 
KARG - Walnut Ridge, Arkansas
Updated: Wed, Dec-Wed-2019 9:56am
Clear
Clear
 Wind from SSW
Wind: SSW 9 mph , 15 km/h
Temperature: 37°F , 3°C
Wind Chill: 30°F , -1°C
Dew Point: 25°F , -4°C
Humidity: 60%
Barometer: 30.57 inHg , 1035.2 hPa
Clouds: Clear
Visibility: 10 miles , 16 km
2019/12/11 15:56 KARG 111556Z AUTO 21008KT 10SM CLR 03/M04 A3057 RMK AO2 SLP357 T00331039
KJBR - Jonesboro, Arkansas
Updated: Wed, Dec-Wed-2019 9:53am
Clear
Clear
 Wind from SW
Wind: SW 7 mph , 11 km/h
Temperature: 39°F , 4°C
Wind Chill: 34°F , 1°C
Dew Point: 25°F , -4°C
Humidity: 56%
Barometer: 30.58 inHg , 1035.6 hPa
Clouds: Clear
Visibility: 10 miles , 16 km
2019/12/11 15:53 KJBR 111553Z AUTO 22006KT 10SM CLR 04/M04 A3058 RMK AO2 SLP357 T00391039
K4M9 - Corning, Arkansas
Updated: Wed, Dec-Wed-2019 9:55am
Clear
Clear
 Wind from SW
Wind: SW 6 mph , 9 km/h
Temperature: 37°F , 3°C
Wind Chill: 32°F , 0°C
Dew Point: 32°F , 0°C
Humidity: 81%
Barometer: 30.57 inHg , 1035.2 hPa
Clouds: Clear
Visibility: 10 miles , 16 km
2019/12/11 15:55 K4M9 111555Z AUTO 22005KT 10SM CLR 03/M00 A3057 RMK AO2 PWINO
 
KLRF - Little Rock Afb, Arkansas
Updated: Wed, Dec-Wed-2019 9:56am
Clear
Clear
 Wind from calm
Wind: Calm
Clouds: Clear
Visibility: 10 miles , 16 km
2019/12/11 15:56 KLRF 111556Z AUTO 00000KT 10SM CLR M M RMK AO2 SLPNO RVRNO PWINO PNO FZRANO TSNO VISNO RWY25 CHINO RWY25 $
KLIT - Little Rock, Arkansas
Updated: Wed, Dec-Wed-2019 9:53am
Clear
Clear
 Wind from WSW
Wind: WSW 3 mph , 6 km/h
Temperature: 39°F , 4°C
Dew Point: 23°F , -5°C
Humidity: 52%
Barometer: 30.60 inHg , 1036.2 hPa
Clouds: Clear
Visibility: 10 miles , 16 km
2019/12/11 15:53 KLIT 111553Z 24003KT 10SM CLR 04/M05 A3060 RMK AO2 SLP366 T00391050
KSGT - Stuttgart, Arkansas
Updated: Wed, Dec-Wed-2019 9:56am
Clear
Clear
 Wind from calm
Wind: Calm
Temperature: 39°F , 4°C
Dew Point: 25°F , -4°C
Humidity: 56%
Barometer: 30.61 inHg , 1036.6 hPa
Clouds: Clear
Visibility: 10 miles , 16 km
2019/12/11 15:56 KSGT 111556Z AUTO 00000KT 10SM CLR 04/M04 A3061 RMK AO2 SLP367 T00391039
 
KAWM - West Memphis, Arkansas
Updated: Wed, Dec-Wed-2019 9:53am
Clear
Clear
 Wind from S
Wind: S 6 mph , 9 km/h
Temperature: 39°F , 4°C
Wind Chill: 35°F , 2°C
Dew Point: 28°F , -2°C
Humidity: 65%
Barometer: 30.59 inHg , 1035.9 hPa
Clouds: Clear
Visibility: 10 miles , 16 km
2019/12/11 15:53 KAWM 111553Z AUTO 18005KT 10SM CLR 04/M02 A3059 RMK AO2 SLP361 T00391017
KFSM - Fort Smith, Arkansas
Updated: Wed, Dec-Wed-2019 9:53am
Clear
Clear
 Wind from ENE
Wind: ENE 5 mph , 7 km/h
Temperature: 36°F , 2°C
Wind Chill: 32°F , 0°C
Dew Point: 28°F , -2°C
Humidity: 75%
Barometer: 30.57 inHg , 1035.2 hPa
Clouds: Clear
Visibility: 10 miles , 16 km
2019/12/11 15:53 KFSM 111553Z 07004KT 10SM CLR 02/M02 A3057 RMK AO2 SLP356 T00221017
KMWT - Mount Ida, Arkansas
Updated: Wed, Dec-Wed-2019 7:53am
NOT Current
Clear
Clear
 Wind from calm
Wind: Calm
Temperature: 21°F , -6°C
Dew Point: 19°F , -7°C
Humidity: 93%
Barometer: 30.51 inHg , 1033.2 hPa
Clouds: Clear
Visibility: 10 miles , 16 km
2019/12/11 13:53 KMWT 111353Z AUTO 00000KT 10SM CLR M06/M07 A3051 RMK AO2 SLP349 T10561067
 
KMEZ - Mena, Arkansas
Updated: Wed, Dec-Wed-2019 9:55am
Clear
Clear
 Wind from W
Wind: W 3 mph , 6 km/h
Temperature: 41°F , 5°C
Dew Point: 32°F , 0°C
Humidity: 70%
Barometer: 30.55 inHg , 1034.5 hPa
Clouds: Clear
Visibility: 10 miles , 16 km
2019/12/11 15:55 KMEZ 111555Z AUTO 28003KT 10SM CLR 05/00 A3055 RMK AO2
KHOT - Hot Springs, Arkansas
Updated: Wed, Dec-Wed-2019 9:53am
Clear
Clear
 Wind from calm
Wind: Calm
Temperature: 37°F , 3°C
Dew Point: 30°F , -1°C
Humidity: 75%
Barometer: 30.58 inHg , 1035.6 hPa
Clouds: Clear
Visibility: 10 miles , 16 km
2019/12/11 15:53 KHOT 111553Z AUTO 00000KT 10SM CLR 03/M01 A3058 RMK AO2 SLP360 T00281011
KADF - Arkadelphia, Arkansas
Updated: Wed, Dec-Wed-2019 9:56am
Clear
Clear
 Wind from calm
Wind: Calm
Temperature: 36°F , 2°C
Dew Point: 30°F , -1°C
Humidity: 81%
Barometer: 30.61 inHg , 1036.6 hPa
Clouds: Clear
Visibility: 10 miles , 16 km
2019/12/11 15:56 KADF 111556Z AUTO 00000KT 10SM CLR 02/M01 A3061 RMK AO2 SLP368 T00221011 FZRANO
 
KSGT - Stuttgart, Arkansas
Updated: Wed, Dec-Wed-2019 9:56am
Clear
Clear
 Wind from calm
Wind: Calm
Temperature: 39°F , 4°C
Dew Point: 25°F , -4°C
Humidity: 56%
Barometer: 30.61 inHg , 1036.6 hPa
Clouds: Clear
Visibility: 10 miles , 16 km
2019/12/11 15:56 KSGT 111556Z AUTO 00000KT 10SM CLR 04/M04 A3061 RMK AO2 SLP367 T00391039
KPBF - Pine Bluff, Arkansas
Updated: Wed, Dec-Wed-2019 9:53am
Clear
Clear
 Wind from calm
Wind: Calm
Temperature: 37°F , 3°C
Dew Point: 25°F , -4°C
Humidity: 60%
Barometer: 30.60 inHg , 1036.2 hPa
Clouds: Clear
Visibility: 10 miles , 16 km
2019/12/11 15:53 KPBF 111553Z AUTO 00000KT 10SM CLR 03/M04 A3060 RMK AO2 SLP364 T00281044
KSRC - Searcy, Arkansas
Updated: Wed, Dec-Wed-2019 9:56am
Clear
Clear
 Wind from SSE
Wind: SSE 5 mph , 7 km/h
Temperature: 37°F , 3°C
Wind Chill: 33°F , 1°C
Dew Point: 30°F , -1°C
Humidity: 75%
Barometer: 30.60 inHg , 1036.2 hPa
Clouds: Clear
Visibility: 10 miles , 16 km
2019/12/11 15:56 KSRC 111556Z AUTO 16004KT 10SM CLR 03/M01 A3060 RMK AO2 SLPNO T00331006
 
KRUE - Russellville, Arkansas
Updated: Wed, Dec-Wed-2019 9:53am
Clear
Clear
 Wind from calm
Wind: Calm
Temperature: 37°F , 3°C
Dew Point: 28°F , -2°C
Humidity: 70%
Barometer: 30.58 inHg , 1035.6 hPa
Clouds: Clear
Visibility: 10 miles , 16 km
2019/12/11 15:53 KRUE 111553Z AUTO 00000KT 10SM CLR 03/M02 A3058 RMK AO2 SLP355 T00281017
KCCA - Clinton, Arkansas
Updated: Wed, Dec-Wed-2019 9:55am
Clear
Clear
 Wind from calm
Wind: Calm
Temperature: 34°F , 1°C
Dew Point: 25°F , -4°C
Humidity: 70%
Barometer: 30.58 inHg , 1035.6 hPa
Clouds: Clear
Visibility: 10 miles , 16 km
2019/12/11 15:55 KCCA 111555Z AUTO 00000KT 10SM CLR 01/M04 A3058 RMK AO2
KLLQ - Monticello, Arkansas
Updated: Wed, Dec-Wed-2019 9:53am
Clear
Clear
 Wind from E
Wind: E 5 mph , 7 km/h
Temperature: 39°F , 4°C
Wind Chill: 35°F , 2°C
Dew Point: 30°F , -1°C
Humidity: 70%
Barometer: 30.59 inHg , 1035.9 hPa
Clouds: Clear
Visibility: 10 miles , 16 km
2019/12/11 15:53 KLLQ 111553Z AUTO 08004KT 10SM CLR 04/M01 A3059 RMK AO2 SLP359 T00391011
 
KCDH - Camden, Arkansas
Updated: Wed, Dec-Wed-2019 9:55am
Clear
Clear
 Wind from calm
Wind: Calm
Temperature: 39°F , 4°C
Dew Point: 32°F , 0°C
Humidity: 75%
Barometer: 30.60 inHg , 1036.2 hPa
Clouds: Clear
Visibility: 9 miles , 14 km
2019/12/11 15:55 KCDH 111555Z AUTO 00000KT 9SM CLR 04/00 A3060 RMK AO2
KM19 - Newport, Arkansas
Updated: Wed, Dec-Wed-2019 9:56am
Clear
Clear
 Wind from S
Wind: S 6 mph , 9 km/h
Temperature: 37°F , 3°C
Wind Chill: 32°F , 0°C
Dew Point: 30°F , -1°C
Humidity: 75%
Barometer: 30.60 inHg , 1036.2 hPa
Clouds: Clear
Visibility: 10 miles , 16 km
2019/12/11 15:56 KM19 111556Z AUTO 19005KT 10SM CLR 03/M01 A3060 RMK AO2 SLP363 T00281006
KDEQ - De Queen, Arkansas
Updated: Wed, Dec-Wed-2019 9:53am
Clear
Clear
 Wind from calm
Wind: Calm
Temperature: 37°F , 3°C
Dew Point: 30°F , -1°C
Humidity: 75%
Barometer: 30.58 inHg , 1035.6 hPa
Clouds: Clear
Visibility: 10 miles , 16 km
2019/12/11 15:53 KDEQ 111553Z AUTO 00000KT 10SM CLR 03/M01 A3058 RMK AO2 SLP358 T00281006
 
KTXK - Texarkana, Arkansas
Updated: Wed, Dec-Wed-2019 9:53am
Clear
Clear
 Wind from SE
Wind: SE 5 mph , 7 km/h
Temperature: 37°F , 3°C
Wind Chill: 33°F , 1°C
Dew Point: 28°F , -2°C
Humidity: 70%
Barometer: 30.60 inHg , 1036.2 hPa
Clouds: Clear
Visibility: 10 miles , 16 km
2019/12/11 15:53 KTXK 111553Z 14004KT 10SM CLR 03/M02 A3060 RMK AO2 SLP363 T00331017
KELD - El Dorado, Arkansas
Updated: Wed, Dec-Wed-2019 9:53am
Clear
Clear
 Wind from E
Wind: E 3 mph , 6 km/h
Temperature: 37°F , 3°C
Dew Point: 30°F , -1°C
Humidity: 75%
Barometer: 30.60 inHg , 1036.2 hPa
Clouds: Clear
Visibility: 10 miles , 16 km
2019/12/11 15:53 KELD 111553Z AUTO 10003KT 10SM CLR 03/M01 A3060 RMK AO2 SLP363 T00331011
KCSM - Clinton, Oklahoma
Updated: Wed, Dec-Wed-2019 9:53am
Clear
Clear
 Wind from S
Wind: S 16 mph , 26 km/h
Temperature: 37°F , 3°C
Wind Chill: 28°F , -2°C
Dew Point: 27°F , -3°C
Humidity: 65%
Barometer: 30.42 inHg , 1030.1 hPa
Clouds: Clear
Visibility: 10 miles , 16 km
2019/12/11 15:53 KCSM 111553Z 19014KT 10SM CLR 03/M03 A3042 RMK AO2 SLP315 T00281033
 
KHBR - Hobart, Oklahoma
Updated: Wed, Dec-Wed-2019 9:53am

 
Barometer: 30.45 inHg , 1031.2 hPa
2019/12/11 15:53 KHBR 111553Z AUTO A3045 RMK AO2 SLPNO PWINO FZRANO
KLTS - Altus Afb, Oklahoma
Updated: Wed, Dec-Wed-2019 9:56am
Clear
Clear
 Wind from S
Wind: S 9 mph , 15 km/h
Temperature: 39°F , 4°C
Wind Chill: 33°F , 1°C
Dew Point: 28°F , -2°C
Humidity: 65%
Barometer: 30.45 inHg , 1031.2 hPa
Clouds: Clear
Visibility: 7 miles , 11 km
2019/12/11 15:56 KLTS 111556Z 17008KT 7SM CLR 04/M02 A3045 RMK AO2A SLP321 T00361020 $
KFSI - Fort Sill, Oklahoma
Updated: Wed, Dec-Wed-2019 9:56am
Clear
Clear
 Wind from S
Wind: S 12 mph , 19 km/h
Temperature: 39°F , 4°C
Wind Chill: 32°F , 0°C
Dew Point: 30°F , -1°C
Humidity: 70%
Barometer: 30.47 inHg , 1031.8 hPa
Clouds: Clear
Visibility: 10 miles , 16 km
2019/12/11 15:56 KFSI 111556Z AUTO 18010KT 10SM CLR 04/M01 A3047 RMK AO2 SLP326 T00391007
 
KGAG - Gage, Oklahoma
Updated: Wed, Dec-Wed-2019 9:53am
Clear
Clear
 Wind from SSW
Wind: SSW 16 mph , 26 km/h
Temperature: 39°F , 4°C
Wind Chill: 30°F , -1°C
Dew Point: 21°F , -6°C
Humidity: 48%
Barometer: 30.36 inHg , 1028.1 hPa
Clouds: Clear
Visibility: 10 miles , 16 km
2019/12/11 15:53 KGAG 111553Z AUTO 20014KT 10SM CLR 04/M06 A3036 RMK AO2 SLP293 T00441056
KWWR - Woodward, Oklahoma
Updated: Tue, Dec-Tue-2019 10:55am
NOT Current

 
2019/12/10 16:55 KWWR 101655Z AUTO RMK AO2 PWINO TSNO
KLAW - Lawton, Oklahoma
Updated: Wed, Dec-Wed-2019 9:53am
Clear
Clear
 Wind from S
Wind: S 12 mph , 19 km/h
Temperature: 39°F , 4°C
Wind Chill: 32°F , 0°C
Dew Point: 30°F , -1°C
Humidity: 70%
Barometer: 30.49 inHg , 1032.5 hPa
Clouds: Clear
Visibility: 10 miles , 16 km
2019/12/11 15:53 KLAW 111553Z 18010KT 10SM CLR 04/M01 A3049 RMK AO2 SLP333 T00441006 $
 
KOKC - Oklahoma City, Oklahoma
Updated: Wed, Dec-Wed-2019 9:52am
Few Clouds
Few Clouds
 Wind from SSW
Wind: SSW 14 mph , 22 km/h
Temperature: 39°F , 4°C
Wind Chill: 31°F , -1°C
Dew Point: 28°F , -2°C
Humidity: 65%
Barometer: 30.48 inHg , 1032.2 hPa
Clouds: Few Clouds
Visibility: 10 miles , 16 km
Cloud details: Few Clouds 25000 ft
2019/12/11 15:52 KOKC 111552Z 20012KT 10SM FEW250 04/M02 A3048 RMK AO2 SLP329 T00391017
KEND - Enid/Vance Afb, Oklahoma
Updated: Wed, Dec-Wed-2019 9:56am
Clear
Clear
 Wind from S
Wind: S 14 mph , 22 km/h
Temperature: 37°F , 3°C
Wind Chill: 28°F , -2°C
Dew Point: 28°F , -2°C
Humidity: 70%
Barometer: 30.43 inHg , 1030.5 hPa
Clouds: Clear
Visibility: 10 miles , 16 km
2019/12/11 15:56 KEND 111556Z AUTO 18012KT 10SM CLR 03/M02 A3043 RMK AO2 SLP318 T00321016
KFDR - Frederick/Altus, Oklahoma
Updated: Wed, Dec-Wed-2019 9:53am
Clear
Clear
 Wind from S
Wind: S 10 mph , 17 km/h
Temperature: 39°F , 4°C
Wind Chill: 32°F , 0°C
Dew Point: 32°F , 0°C
Humidity: 75%
Barometer: 30.44 inHg , 1030.8 hPa
Clouds: Clear
Visibility: 10 miles , 16 km
2019/12/11 15:53 KFDR 111553Z AUTO 18009KT 10SM CLR 04/00 A3044 RMK AO2 SLP314 T00390000
 
KOUN - Norman, Oklahoma
Updated: Wed, Dec-Wed-2019 9:47am
Clear
Clear
 Wind from S
Wind: S 13 mph , 20 km/h
Temperature: 37°F , 3°C
Wind Chill: 29°F , -2°C
Dew Point: 30°F , -1°C
Humidity: 75%
Barometer: 30.47 inHg , 1031.8 hPa
Clouds: Clear
Visibility: 10 miles , 16 km
2019/12/11 15:47 KOUN 111547Z 19011KT 10SM CLR 03/M01 A3047
KTIK - Tinker Afb, Oklahoma
Updated: Wed, Dec-Wed-2019 9:56am
Clear
Clear
 Wind from SSW
Wind: SSW 16 mph , 26 km/h
Temperature: 39°F , 4°C
Wind Chill: 30°F , -1°C
Dew Point: 28°F , -2°C
Humidity: 65%
Barometer: 30.48 inHg , 1032.2 hPa
Clouds: Clear
Visibility: 10 miles , 16 km
2019/12/11 15:56 KTIK 111556Z AUTO 20014KT 10SM CLR 04/M02 A3048 RMK AO2 SLP339 T00361016
KGOK - Guthrie, Oklahoma
Updated: Wed, Dec-Wed-2019 9:53am
Clear
Clear
 Wind from SSW
Wind: SSW 14 mph , 22 km/h
Temperature: 39°F , 4°C
Wind Chill: 31°F , -1°C
Dew Point: 27°F , -3°C
Humidity: 61%
Barometer: 30.47 inHg , 1031.8 hPa
Clouds: Clear
Visibility: 10 miles , 16 km
2019/12/11 15:53 KGOK 111553Z AUTO 21012KT 10SM CLR 04/M03 A3047 RMK AO2 SLP329 T00441028
 
KSNL - Shawnee, Oklahoma
Updated: Wed, Dec-Wed-2019 9:55am
Clear
Clear
 Wind from SW
Wind: SW 10 mph , 17 km/h
Temperature: 37°F , 3°C
Wind Chill: 30°F , -1°C
Dew Point: 30°F , -1°C
Humidity: 75%
Barometer: 30.50 inHg , 1032.8 hPa
Clouds: Clear
Visibility: 10 miles , 16 km
2019/12/11 15:55 KSNL 111555Z AUTO 22009KT 10SM CLR 03/M01 A3050 RMK AO2 T00331008
KCQB - Chandler, Oklahoma
Updated: Wed, Dec-Wed-2019 9:55am
Clear
Clear
 Wind from S
Wind: S 10 mph , 17 km/h
Temperature: 37°F , 3°C
Wind Chill: 30°F , -1°C
Dew Point: 28°F , -2°C
Humidity: 70%
Barometer: 30.51 inHg , 1033.2 hPa
Clouds: Clear
Visibility: 10 miles , 16 km
2019/12/11 15:55 KCQB 111555Z AUTO 19009KT 10SM CLR 03/M02 A3051 RMK AO2 T00311017
KPVJ - Pauls Valley, Oklahoma
Updated: Thu, Dec-Thu-2019 1:55pm
NOT Current
Clear
Clear
 Wind from SSW
Wind: SSW 15 mph , 24 km/h, Gust: 20 mph , 31 km/h
Temperature: 72°F , 22°C
Dew Point: 39°F , 4°C
Humidity: 31%
Barometer: 29.81 inHg , 1009.5 hPa
Clouds: Clear
Visibility: 10 miles , 16 km
2019/12/05 19:55 KPVJ 051955Z AUTO 20013G17KT 10SM CLR 22/04 A2981 RMK AO2 T02160042
 
KEND - Enid/Vance Afb, Oklahoma
Updated: Wed, Dec-Wed-2019 9:56am
Clear
Clear
 Wind from S
Wind: S 14 mph , 22 km/h
Temperature: 37°F , 3°C
Wind Chill: 28°F , -2°C
Dew Point: 28°F , -2°C
Humidity: 70%
Barometer: 30.43 inHg , 1030.5 hPa
Clouds: Clear
Visibility: 10 miles , 16 km
2019/12/11 15:56 KEND 111556Z AUTO 18012KT 10SM CLR 03/M02 A3043 RMK AO2 SLP318 T00321016
KSWO - Stillwater, Oklahoma
Updated: Wed, Dec-Wed-2019 9:53am
Clear
Clear
 Wind from S
Wind: S 9 mph , 15 km/h
Temperature: 39°F , 4°C
Wind Chill: 33°F , 1°C
Dew Point: 27°F , -3°C
Humidity: 61%
Barometer: 30.48 inHg , 1032.2 hPa
Clouds: Clear
Visibility: 10 miles , 16 km
2019/12/11 15:53 KSWO 111553Z 19008KT 10SM CLR 04/M03 A3048 RMK AO2 SLP326 T00441033 $
KFSI - Fort Sill, Oklahoma
Updated: Wed, Dec-Wed-2019 9:56am
Clear
Clear
 Wind from S
Wind: S 12 mph , 19 km/h
Temperature: 39°F , 4°C
Wind Chill: 32°F , 0°C
Dew Point: 30°F , -1°C
Humidity: 70%
Barometer: 30.47 inHg , 1031.8 hPa
Clouds: Clear
Visibility: 10 miles , 16 km
2019/12/11 15:56 KFSI 111556Z AUTO 18010KT 10SM CLR 04/M01 A3047 RMK AO2 SLP326 T00391007
 
KDUC - Duncan, Oklahoma
Updated: Sun, Dec-Sun-2019 1:35am
NOT Current
Clear
Clear
 Wind from SSE
Wind: SSE 10 mph , 17 km/h
Temperature: 46°F , 8°C
Wind Chill: 41°F , 5°C
Dew Point: 39°F , 4°C
Humidity: 76%
Barometer: 30.02 inHg , 1016.6 hPa
Clouds: Clear
Visibility: 10 miles , 16 km
2019/12/08 07:35 KDUC 080735Z AUTO 15009KT 10SM CLR 08/04 A3002 RMK AO2 T00780037
KOKM - Okmulgee, Oklahoma
Updated: Wed, Dec-Wed-2019 9:55am
Clear
Clear
 Wind from SW
Wind: SW 10 mph , 17 km/h, Gust: 17 mph , 28 km/h
Temperature: 37°F , 3°C
Wind Chill: 30°F , -1°C
Dew Point: 28°F , -2°C
Humidity: 70%
Barometer: 30.53 inHg , 1033.9 hPa
Clouds: Clear
Visibility: 10 miles , 16 km
2019/12/11 15:55 KOKM 111555Z AUTO 22009G15KT 10SM CLR 03/M02 A3053 RMK AO2 T00341023
KMLC - Mcalester, Oklahoma
Updated: Wed, Dec-Wed-2019 9:53am
Few Clouds
Few Clouds
 Wind from SSW
Wind: SSW 7 mph , 11 km/h
Temperature: 37°F , 3°C
Wind Chill: 32°F , 0°C
Dew Point: 28°F , -2°C
Humidity: 70%
Barometer: 30.55 inHg , 1034.5 hPa
Clouds: Few Clouds
Visibility: 10 miles , 16 km
Cloud details: Few Clouds 8000 ft
Few Clouds 11000 ft
2019/12/11 15:53 KMLC 111553Z AUTO 21006KT 10SM FEW080 FEW110 03/M02 A3055 RMK AO2 SLP350 T00331017
 
KMKO - Muskogee, Oklahoma
Updated: Wed, Dec-Wed-2019 9:53am
Clear
Clear
 Wind from S
Wind: S 6 mph , 9 km/h
Temperature: 37°F , 3°C
Wind Chill: 32°F , 0°C
Dew Point: 28°F , -2°C
Humidity: 70%
Barometer: 30.57 inHg , 1035.2 hPa
Clouds: Clear
Visibility: 10 miles , 16 km
2019/12/11 15:53 KMKO 111553Z AUTO 19005KT 10SM CLR 03/M02 A3057 RMK AO2 SLP354 T00281017
KRVS - Tulsa, Oklahoma
Updated: Wed, Dec-Wed-2019 9:53am
Clear
Clear
 Wind from S
Wind: S 7 mph , 11 km/h
Temperature: 39°F , 4°C
Wind Chill: 34°F , 1°C
Dew Point: 27°F , -3°C
Humidity: 61%
Barometer: 30.53 inHg , 1033.9 hPa
Clouds: Clear
Visibility: 10 miles , 16 km
2019/12/11 15:53 KRVS 111553Z 19006KT 10SM CLR 04/M03 A3053 RMK AO2 SLP347 T00441028
KGZL - Stigler, Oklahoma
Updated: Wed, Dec-Wed-2019 9:55am
Clear
Clear
 Wind from calm
Wind: Calm
Temperature: 37°F , 3°C
Dew Point: 23°F , -5°C
Humidity: 56%
Barometer: 30.56 inHg , 1034.9 hPa
Clouds: Clear
Visibility: 10 miles , 16 km
2019/12/11 15:55 KGZL 111555Z AUTO 00000KT 10SM CLR 03/M05 A3056 RMK AO2
 
KADH - Ada, Oklahoma
Updated: Wed, Dec-Wed-2019 9:55am
Clear
Clear
 Wind from SSW
Wind: SSW 9 mph , 15 km/h
Temperature: 41°F , 5°C
Wind Chill: 35°F , 2°C
Dew Point: 32°F , 0°C
Humidity: 70%
Barometer: 30.52 inHg , 1033.5 hPa
Clouds: Clear
Visibility: 10 miles , 16 km
2019/12/11 15:55 KADH 111555Z AUTO 20008KT 10SM CLR 05/00 A3052 RMK AO2
KAQR - Atoka, Oklahoma
Updated: Wed, Dec-Wed-2019 9:55am
Clear
Clear
 Wind from S
Wind: S 7 mph , 11 km/h
Temperature: 34°F , 1°C
Wind Chill: 28°F , -2°C
Dew Point: 28°F , -2°C
Humidity: 81%
Barometer: 30.58 inHg , 1035.6 hPa
Clouds: Clear
Visibility: 10 miles , 16 km
2019/12/11 15:55 KAQR 111555Z AUTO 19006KT 10SM CLR 01/M02 A3058 RMK AO2
KJSV - Sallisaw, Oklahoma
Updated: Wed, Dec-Wed-2019 9:55am
Clear
Clear
 Wind from calm
Wind: Calm
Temperature: 36°F , 2°C
Dew Point: 28°F , -2°C
Humidity: 75%
Barometer: 30.56 inHg , 1034.9 hPa
Clouds: Clear
Visibility: 10 miles , 16 km
2019/12/11 15:55 KJSV 111555Z AUTO 00000KT 10SM CLR 02/M02 A3056 RMK AO2
 
KTQH - Tahlequah, Oklahoma
Updated: Wed, Dec-Wed-2019 9:55am
Clear
Clear
 Wind from SSW
Wind: SSW 5 mph , 7 km/h
Temperature: 36°F , 2°C
Wind Chill: 32°F , 0°C
Dew Point: 30°F , -1°C
Humidity: 81%
Barometer: 30.55 inHg , 1034.5 hPa
Clouds: Clear
Visibility: 10 miles , 16 km
2019/12/11 15:55 KTQH 111555Z AUTO 20004KT 10SM CLR 02/M01 A3055 RMK AO2
KGCM - Claremore, Oklahoma
Updated: Wed, Dec-Wed-2019 9:55am
Clear
Clear
 Wind from SSW
Wind: SSW 8 mph , 13 km/h
Temperature: 37°F , 3°C
Wind Chill: 31°F , -1°C
Dew Point: 18°F , -8°C
Humidity: 45%
Barometer: 30.54 inHg , 1034.2 hPa
Clouds: Clear
Visibility: 10 miles , 16 km
2019/12/11 15:55 KGCM 111555Z AUTO 21007KT 10SM CLR 03/M08 A3054 RMK AO2
KRKR - Poteau, Oklahoma
Updated: Wed, Dec-Wed-2019 9:55am
Clear
Clear
 Wind from calm
Wind: Calm
Temperature: 36°F , 2°C
Dew Point: 30°F , -1°C
Humidity: 81%
Barometer: 30.56 inHg , 1034.9 hPa
Clouds: Clear
Visibility: 10 miles , 16 km
2019/12/11 15:55 KRKR 111555Z AUTO 00000KT 10SM CLR 02/M01 A3056 RMK AO2
 
KGMJ - Grove, Oklahoma
Updated: Wed, Dec-Wed-2019 9:55am
Clear
Clear
 Wind from SSW
Wind: SSW 8 mph , 13 km/h
Temperature: 37°F , 3°C
Wind Chill: 31°F , -1°C
Dew Point: 27°F , -3°C
Humidity: 65%
Barometer: 30.52 inHg , 1033.5 hPa
Clouds: Clear
Visibility: 10 miles , 16 km
2019/12/11 15:55 KGMJ 111555Z AUTO 21007KT 10SM CLR 03/M03 A3052 RMK AO2
K4O4 - Idabel, Oklahoma
Updated: Wed, Dec-Wed-2019 9:55am
Clear
Clear
 Wind from calm
Wind: Calm
Temperature: 36°F , 2°C
Dew Point: 28°F , -2°C
Humidity: 75%
Barometer: 30.56 inHg , 1034.9 hPa
Clouds: Clear
Visibility: 10 miles , 16 km
2019/12/11 15:55 K4O4 111555Z AUTO 00000KT 10SM CLR 02/M02 A3056 RMK AO2
KHHW - Hugo, Oklahoma
Updated: Wed, Jun-Wed-2019 9:18am
NOT Current
Clear
Clear
 Wind from WSW
Wind: WSW 8 mph , 13 km/h
Temperature: 70°F , 21°C
Dew Point: 61°F , 16°C
Humidity: 73%
Barometer: 30.00 inHg , 1015.9 hPa
Clouds: Clear
Visibility: 10 miles , 16 km
2019/06/12 14:18 KHHW 121418Z 24007KT 10SM CLR 21/16 A3000
 
KDUA - Durant, Oklahoma
Updated: Wed, Dec-Wed-2019 10:00am
Clear
Clear
 Wind from S
Wind: S 10 mph , 17 km/h
Temperature: 43°F , 6°C
Wind Chill: 37°F , 3°C
Dew Point: 34°F , 1°C
Humidity: 71%
Barometer: 30.56 inHg , 1034.9 hPa
Clouds: Clear
Visibility: 10 miles , 16 km
2019/12/11 16:00 KDUA 111600Z AUTO 19009KT 10SM CLR 06/01 A3056 RMK AO2
KSTJ - St. Joseph, Missouri
Updated: Wed, Dec-Wed-2019 9:53am
Clear
Clear
 Wind from calm
Wind: Calm
Temperature: 34°F , 1°C
Dew Point: 19°F , -7°C
Humidity: 56%
Barometer: 30.42 inHg , 1030.1 hPa
Clouds: Clear
Visibility: 10 miles , 16 km
2019/12/11 15:53 KSTJ 111553Z 00000KT 10SM CLR 01/M07 A3042 RMK AO2 SLP309 T00061072
KMCI - Kansas City/Intl, Missouri
Updated: Wed, Dec-Wed-2019 9:53am
Clear
Clear
 Wind from NW
Wind: NW 5 mph , 7 km/h
Temperature: 37°F , 3°C
Wind Chill: 33°F , 1°C
Dew Point: 21°F , -6°C
Humidity: 52%
Barometer: 30.41 inHg , 1029.8 hPa
Clouds: Clear
Visibility: 8 miles , 13 km
2019/12/11 15:53 KMCI 111553Z 31004KT 8SM R19R/5000VP6000FT CLR 03/M06 A3041 RMK AO2 SLP306 T00281061
 
KMKC - Kansas City/Dntn, Missouri
Updated: Wed, Dec-Wed-2019 9:54am
Clear
Clear
 Wind from WNW
Wind: WNW 5 mph , 7 km/h
Temperature: 37°F , 3°C
Wind Chill: 33°F , 1°C
Dew Point: 21°F , -6°C
Humidity: 52%
Barometer: 30.43 inHg , 1030.5 hPa
Clouds: Clear
Visibility: 10 miles , 16 km
2019/12/11 15:54 KMKC 111554Z 30004KT 10SM CLR 03/M06 A3043 RMK AO2 SLP310 T00281061
KCDJ - Chillicothe, Missouri
Updated: Wed, Dec-Wed-2019 9:52am

 Wind from WNW
Wind: WNW 5 mph , 7 km/h
Temperature: 34°F , 1°C
Wind Chill: 29°F , -2°C
Dew Point: 19°F , -7°C
Humidity: 56%
Barometer: 30.43 inHg , 1030.5 hPa
2019/12/11 15:52 KCDJ 111552Z AUTO 29004KT 01/M07 A3043 RMK AO1 SLP324 T00061067
KIRK - Kirksville, Missouri
Updated: Wed, Dec-Wed-2019 9:55am
Clear
Clear
 Wind from NW
Wind: NW 10 mph , 17 km/h
Temperature: 30°F , -1°C
Wind Chill: 21°F , -6°C
Dew Point: 19°F , -7°C
Humidity: 64%
Barometer: 30.41 inHg , 1029.8 hPa
Clouds: Clear
Visibility: 10 miles , 16 km
2019/12/11 15:55 KIRK 111555Z AUTO 31009KT 10SM CLR M01/M07 A3041 RMK AO2 SLP315 T10061072
 
KSZL - Whiteman Afb, Missouri
Updated: Wed, Dec-Wed-2019 9:56am
Clear
Clear
 Wind from WSW
Wind: WSW 14 mph , 22 km/h
Temperature: 37°F , 3°C
Wind Chill: 28°F , -2°C
Dew Point: 21°F , -6°C
Humidity: 52%
Barometer: 30.38 inHg , 1028.8 hPa
Clouds: Clear
Visibility: 10 miles , 16 km
2019/12/11 15:56 KSZL 111556Z AUTO 25012KT 10SM CLR 03/M06 A3038 RMK AO2 SLP301 T00341063 $
KDMO - Sedalia, Missouri
Updated: Wed, Dec-Wed-2019 9:53am
Clear
Clear
 Wind from WSW
Wind: WSW 13 mph , 20 km/h, Gust: 26 mph , 43 km/h
Temperature: 37°F , 3°C
Wind Chill: 29°F , -2°C
Dew Point: 21°F , -6°C
Humidity: 52%
Barometer: 30.43 inHg , 1030.5 hPa
Clouds: Clear
Visibility: 10 miles , 16 km
2019/12/11 15:53 KDMO 111553Z AUTO 25011G23KT 10SM CLR 03/M06 A3043 RMK AO2 PK WND 23026/1504 SLP315 T00331061
KGLY - Clinton, Missouri
Updated: Wed, Dec-Wed-2019 9:55am
Clear
Clear
 Wind from W
Wind: W 14 mph , 22 km/h
Temperature: 37°F , 3°C
Wind Chill: 28°F , -2°C
Dew Point: 23°F , -5°C
Humidity: 56%
Barometer: 30.46 inHg , 1031.5 hPa
Clouds: Clear
Visibility: 10 miles , 16 km
2019/12/11 15:55 KGLY 111555Z AUTO 27012KT 10SM CLR 03/M05 A3046 RMK AO2
 
KCOU - Columbia, Missouri
Updated: Wed, Dec-Wed-2019 9:54am
Clear
Clear
 Wind from W
Wind: W 12 mph , 19 km/h
Temperature: 37°F , 3°C
Wind Chill: 29°F , -2°C
Dew Point: 21°F , -6°C
Humidity: 52%
Barometer: 30.44 inHg , 1030.8 hPa
Clouds: Clear
Visibility: 10 miles , 16 km
2019/12/11 15:54 KCOU 111554Z 28010KT 10SM CLR 03/M06 A3044 RMK AO2 SLP316 T00281061
KJEF - Jefferson City, Missouri
Updated: Wed, Dec-Wed-2019 9:53am
Clear
Clear
 Wind from SW
Wind: SW 8 mph , 13 km/h
Temperature: 37°F , 3°C
Wind Chill: 31°F , -1°C
Dew Point: 19°F , -7°C
Humidity: 48%
Barometer: 30.45 inHg , 1031.2 hPa
Clouds: Clear
Visibility: 10 miles , 16 km
2019/12/11 15:53 KJEF 111553Z 23007KT 10SM CLR 03/M07 A3045 RMK AO2 SLP306 T00281067
KVIH - Vichy/Rolla, Missouri
Updated: Wed, Dec-Wed-2019 9:53am
Clear
Clear
 Wind from SSW
Wind: SSW 13 mph , 20 km/h
Temperature: 37°F , 3°C
Wind Chill: 29°F , -2°C
Dew Point: 19°F , -7°C
Humidity: 48%
Barometer: 30.44 inHg , 1030.8 hPa
Clouds: Clear
Visibility: 10 miles , 16 km
2019/12/11 15:53 KVIH 111553Z AUTO 21011KT 10SM CLR 03/M07 A3044 RMK AO2 SLP320 T00281072
 
KTBN - Fort Leonard Wood, Missouri
Updated: Wed, Dec-Wed-2019 9:56am
Clear
Clear
 Wind from SW
Wind: SW 9 mph , 15 km/h, Gust: 18 mph , 30 km/h
Temperature: 39°F , 4°C
Wind Chill: 33°F , 1°C
Dew Point: 18°F , -8°C
Humidity: 42%
Barometer: 30.44 inHg , 1030.8 hPa
Clouds: Clear
Visibility: 10 miles , 16 km
2019/12/11 15:56 KTBN 111556Z AUTO 23008G16KT 10SM CLR 04/M08 A3044 RMK AO2 SLP321 T00411080
KJLN - Joplin, Missouri
Updated: Wed, Dec-Wed-2019 9:53am
Clear
Clear
 Wind from SW
Wind: SW 20 mph , 31 km/h, Gust: 28 mph , 44 km/h
Temperature: 39°F , 4°C
Wind Chill: 29°F , -2°C
Dew Point: 21°F , -6°C
Humidity: 48%
Barometer: 30.49 inHg , 1032.5 hPa
Clouds: Clear
Visibility: 10 miles , 16 km
2019/12/11 15:53 KJLN 111553Z 22017G24KT 10SM CLR 04/M06 A3049 RMK AO2 SLP331 T00441056
KHFJ - Monett, Missouri
Updated: Wed, Dec-Wed-2019 9:55am
Clear
Clear
 Wind from SSW
Wind: SSW 12 mph , 19 km/h
Temperature: 43°F , 6°C
Wind Chill: 37°F , 3°C
Dew Point: 19°F , -7°C
Humidity: 39%
Barometer: 30.48 inHg , 1032.2 hPa
Clouds: Clear
Visibility: 10 miles , 16 km
2019/12/11 15:55 KHFJ 111555Z AUTO 21010KT 10SM CLR 06/M07 A3048 RMK AO2
 
KSGF - Springfield, Missouri
Updated: Wed, Dec-Wed-2019 9:52am
Clear
Clear
 Wind from SW
Wind: SW 6 mph , 9 km/h
Temperature: 39°F , 4°C
Wind Chill: 35°F , 2°C
Dew Point: 21°F , -6°C
Humidity: 48%
Barometer: 30.47 inHg , 1031.8 hPa
Clouds: Clear
Visibility: 10 miles , 16 km
2019/12/11 15:52 KSGF 111552Z 22005KT 10SM CLR 04/M06 A3047 RMK AO2 SLP328 T00391056
KBBG - Branson, Missouri
Updated: Wed, Dec-Wed-2019 9:55am
Clear
Clear
 Wind from W
Wind: W 9 mph , 15 km/h
Temperature: 39°F , 4°C
Wind Chill: 33°F , 1°C
Dew Point: 14°F , -10°C
Humidity: 36%
Barometer: 30.50 inHg , 1032.8 hPa
Clouds: Clear
Visibility: 10 miles , 16 km
2019/12/11 15:55 KBBG 111555Z 26008KT 10SM SKC 04/M10 A3050
KUNO - West Plains, Missouri
Updated: Wed, Dec-Wed-2019 9:53am
Clear
Clear
 Wind from WSW
Wind: WSW 8 mph , 13 km/h
Temperature: 37°F , 3°C
Wind Chill: 31°F , -1°C
Dew Point: 21°F , -6°C
Humidity: 52%
Barometer: 30.51 inHg , 1033.2 hPa
Clouds: Clear
Visibility: 10 miles , 16 km
2019/12/11 15:53 KUNO 111553Z AUTO 24007KT 10SM CLR 03/M06 A3051 RMK AO2 SLP341 T00331056
 
KFAM - Farmington, Missouri
Updated: Wed, Dec-Wed-2019 9:56am
Clear
Clear
 Wind from S
Wind: S 8 mph , 13 km/h
Temperature: 36°F , 2°C
Wind Chill: 30°F , -1°C
Dew Point: 25°F , -4°C
Humidity: 65%
Barometer: 30.48 inHg , 1032.2 hPa
Clouds: Clear
Visibility: 10 miles , 16 km
2019/12/11 15:56 KFAM 111556Z AUTO 17007KT 10SM CLR 02/M04 A3048 RMK AO2 SLP343 T00221039 FZRANO
KCGI - Cape Girardeau, Missouri
Updated: Wed, Dec-Wed-2019 9:53am
Clear
Clear
 Wind from SSW
Wind: SSW 6 mph , 9 km/h
Temperature: 34°F , 1°C
Wind Chill: 29°F , -2°C
Dew Point: 23°F , -5°C
Humidity: 65%
Barometer: 30.54 inHg , 1034.2 hPa
Clouds: Clear
Visibility: 10 miles , 16 km
2019/12/11 15:53 KCGI 111553Z 21005KT 10SM CLR 01/M05 A3054 RMK AO2 SLP345 T00111050
KSTL - St. Louis, Missouri
Updated: Wed, Dec-Wed-2019 9:51am
Few Clouds
Few Clouds
 Wind from WSW
Wind: WSW 10 mph , 17 km/h
Temperature: 36°F , 2°C
Wind Chill: 29°F , -2°C
Dew Point: 19°F , -7°C
Humidity: 52%
Barometer: 30.45 inHg , 1031.2 hPa
Clouds: Few Clouds
Visibility: 10 miles , 16 km
Cloud details: Few Clouds 13000 ft
Few Clouds 25000 ft
2019/12/11 15:51 KSTL 111551Z 24009KT 10SM FEW130 FEW250 02/M07 A3045 RMK AO2 SLP321 T00221067
 
KPOF - Popular Bluff, Missouri
Updated: Wed, Dec-Wed-2019 9:53am
Clear
Clear
 Wind from SSW
Wind: SSW 8 mph , 13 km/h
Temperature: 36°F , 2°C
Wind Chill: 30°F , -1°C
Dew Point: 25°F , -4°C
Humidity: 65%
Barometer: 30.55 inHg , 1034.5 hPa
Clouds: Clear
Visibility: 10 miles , 16 km
2019/12/11 15:53 KPOF 111553Z AUTO 21007KT 10SM CLR 02/M04 A3055 RMK AO2 SLP353 T00221039
KSET - St. Charles, Missouri
Updated: Wed, Dec-Wed-2019 9:54am

 
Barometer: 30.45 inHg , 1031.2 hPa
2019/12/11 15:54 KSET 111554Z AUTO A3045 RMK AO2 SLPNO PWINO FZRANO $
KGLD - Goodland, Kansas
Updated: Wed, Dec-Wed-2019 9:53am
Clear
Clear
 Wind from S
Wind: S 7 mph , 11 km/h
Temperature: 41°F , 5°C
Wind Chill: 36°F , 2°C
Dew Point: 21°F , -6°C
Humidity: 45%
Barometer: 30.20 inHg , 1022.7 hPa
Clouds: Clear
Visibility: 10 miles , 16 km
2019/12/11 15:53 KGLD 111553Z AUTO 18006KT 10SM CLR 05/M06 A3020 RMK AO2 SLP245 T00501056
 
KHLC - Hill City, Kansas
Updated: Wed, Dec-Wed-2019 9:53am
Clear
Clear
 Wind from calm
Wind: Calm
Temperature: 30°F , -1°C
Dew Point: 23°F , -5°C
Humidity: 75%
Barometer: 30.29 inHg , 1025.7 hPa
Clouds: Clear
Visibility: 10 miles , 16 km
2019/12/11 15:53 KHLC 111553Z AUTO 00000KT 10SM CLR M01/M05 A3029 RMK AO2 SLP279 T10111050
KHYS - Hays Muni, Kansas
Updated: Wed, Dec-Wed-2019 9:56am
Clear
Clear
 Wind from WSW
Wind: WSW 6 mph , 9 km/h
Temperature: 30°F , -1°C
Wind Chill: 24°F , -4°C
Dew Point: 23°F , -5°C
Humidity: 75%
Barometer: 30.31 inHg , 1026.4 hPa
Clouds: Clear
Visibility: 10 miles , 16 km
2019/12/11 15:56 KHYS 111556Z AUTO 25005KT 10SM CLR M01/M05 A3031 RMK AO2 SLP287 T10111050 FZRANO
KRSL - Russell, Kansas
Updated: Wed, Dec-Wed-2019 9:53am
Clear
Clear
 Wind from SSW
Wind: SSW 10 mph , 17 km/h
Temperature: 30°F , -1°C
Wind Chill: 21°F , -6°C
Dew Point: 21°F , -6°C
Humidity: 69%
Barometer: 30.29 inHg , 1025.7 hPa
Clouds: Clear
Visibility: 10 miles , 16 km
2019/12/11 15:53 KRSL 111553Z AUTO 21009KT 10SM CLR M01/M06 A3029 RMK AO2 SLP281 T10111061
 
KGBD - Great Bend, Kansas
Updated: Wed, Dec-Wed-2019 9:56am
Clear
Clear
 Wind from SSW
Wind: SSW 8 mph , 13 km/h
Temperature: 34°F , 1°C
Wind Chill: 27°F , -3°C
Dew Point: 19°F , -7°C
Humidity: 56%
Barometer: 30.32 inHg , 1026.8 hPa
Clouds: Clear
Visibility: 10 miles , 16 km
2019/12/11 15:56 KGBD 111556Z AUTO 21007KT 10SM CLR 01/M07 A3032 RMK AO2 SLP291 T00111067 FZRANO
KDDC - Dodge City, Kansas
Updated: Wed, Dec-Wed-2019 9:52am
Clear
Clear
 Wind from SW
Wind: SW 9 mph , 15 km/h
Temperature: 34°F , 1°C
Wind Chill: 27°F , -3°C
Dew Point: 19°F , -7°C
Humidity: 56%
Barometer: 30.29 inHg , 1025.7 hPa
Clouds: Clear
Visibility: 9 miles , 14 km
2019/12/11 15:52 KDDC 111552Z AUTO 22008KT 9SM CLR 01/M07 A3029 RMK AO2 SLP281 T00061067
KPTT - Pratt Indust, Kansas
Updated: Wed, Dec-Wed-2019 9:55am
Clear
Clear
 Wind from SSW
Wind: SSW 14 mph , 22 km/h
Temperature: 39°F , 4°C
Wind Chill: 31°F , -1°C
Dew Point: 18°F , -8°C
Humidity: 42%
Barometer: 30.35 inHg , 1027.8 hPa
Clouds: Clear
Visibility: 10 miles , 16 km
2019/12/11 15:55 KPTT 111555Z AUTO 21012KT 10SM CLR 04/M08 A3035 RMK AO2 T00371081
 
KSLN - Salina, Kansas
Updated: Wed, Dec-Wed-2019 9:53am
Clear
Clear
 Wind from SSW
Wind: SSW 10 mph , 17 km/h
Temperature: 36°F , 2°C
Wind Chill: 29°F , -2°C
Dew Point: 19°F , -7°C
Humidity: 52%
Barometer: 30.36 inHg , 1028.1 hPa
Clouds: Clear
Visibility: 10 miles , 16 km
2019/12/11 15:53 KSLN 111553Z 21009KT 10SM CLR 02/M07 A3036 RMK AO2 SLP296 T00171067
KHUT - Hutchinson, Kansas
Updated: Wed, Dec-Wed-2019 9:52am
Clear
Clear
 Wind from S
Wind: S 12 mph , 19 km/h
Temperature: 36°F , 2°C
Wind Chill: 28°F , -2°C
Dew Point: 21°F , -6°C
Humidity: 56%
Barometer: 30.36 inHg , 1028.1 hPa
Clouds: Clear
Visibility: 10 miles , 16 km
2019/12/11 15:52 KHUT 111552Z 19010KT 10SM CLR 02/M06 A3036 RMK AO2 SLP291 T00221061
KGCK - Garden City, Kansas
Updated: Wed, Dec-Wed-2019 9:54am
Clear
Clear
 Wind from SW
Wind: SW 6 mph , 9 km/h
Temperature: 28°F , -2°C
Wind Chill: 21°F , -6°C
Dew Point: 21°F , -6°C
Humidity: 74%
Barometer: 30.27 inHg , 1025.1 hPa
Clouds: Clear
Visibility: 10 miles , 16 km
2019/12/11 15:54 KGCK 111554Z 23005KT 10SM CLR M02/M06 A3027 RMK AO2 SLP280 T10171056
 
KP28 - Medicine Lodge, Kansas
Updated: Wed, Dec-Wed-2019 6:56am
NOT Current

 Wind from calm
Wind: Calm
Temperature: 21°F , -6°C
Dew Point: 18°F , -8°C
Humidity: 86%
Barometer: 30.35 inHg , 1027.8 hPa
2019/12/11 12:56 KP28 111256Z AUTO 00000KT M06/M08 A3035 RMK AO1 SLP296 T10561078
KICT - Wichita, Kansas
Updated: Wed, Dec-Wed-2019 9:53am
Clear
Clear
 Wind from S
Wind: S 14 mph , 22 km/h
Temperature: 37°F , 3°C
Wind Chill: 28°F , -2°C
Dew Point: 21°F , -6°C
Humidity: 52%
Barometer: 30.40 inHg , 1029.5 hPa
Clouds: Clear
Visibility: 10 miles , 16 km
2019/12/11 15:53 KICT 111553Z 19012KT 10SM CLR 03/M06 A3040 RMK AO2 SLP306 T00331056
KRSL - Russell, Kansas
Updated: Wed, Dec-Wed-2019 9:53am
Clear
Clear
 Wind from SSW
Wind: SSW 10 mph , 17 km/h
Temperature: 30°F , -1°C
Wind Chill: 21°F , -6°C
Dew Point: 21°F , -6°C
Humidity: 69%
Barometer: 30.29 inHg , 1025.7 hPa
Clouds: Clear
Visibility: 10 miles , 16 km
2019/12/11 15:53 KRSL 111553Z AUTO 21009KT 10SM CLR M01/M06 A3029 RMK AO2 SLP281 T10111061
 
KMHK - Manhattan, Kansas
Updated: Wed, Dec-Wed-2019 9:52am
Clear
Clear
 Wind from SW
Wind: SW 8 mph , 13 km/h
Temperature: 36°F , 2°C
Wind Chill: 30°F , -1°C
Dew Point: 21°F , -6°C
Humidity: 56%
Barometer: 30.38 inHg , 1028.8 hPa
Clouds: Clear
Visibility: 10 miles , 16 km
2019/12/11 15:52 KMHK 111552Z 22007KT 10SM CLR 02/M06 A3038 RMK AO2 SLP298 T00221061
KEMP - Emporia, Kansas
Updated: Wed, Dec-Wed-2019 9:53am
Clear
Clear
 Wind from SW
Wind: SW 18 mph , 30 km/h, Gust: 26 mph , 43 km/h
Temperature: 41°F , 5°C
Wind Chill: 32°F , 0°C
Dew Point: 19°F , -7°C
Humidity: 42%
Barometer: 30.38 inHg , 1028.8 hPa
Clouds: Clear
Visibility: 10 miles , 16 km
2019/12/11 15:53 KEMP 111553Z AUTO 23016G23KT 10SM CLR 05/M07 A3038 RMK AO2 SLP302 T00501067
KTOP - Topeka, Kansas
Updated: Wed, Dec-Wed-2019 9:53am
Clear
Clear
 Wind from calm
Wind: Calm
Temperature: 37°F , 3°C
Dew Point: 21°F , -6°C
Humidity: 52%
Barometer: 30.41 inHg , 1029.8 hPa
Clouds: Clear
Visibility: 10 miles , 16 km
2019/12/11 15:53 KTOP 111553Z 00000KT 10SM CLR 03/M06 A3041 RMK AO2 SLP305 T00331061
 
KCNU - Chanute, Kansas
Updated: Wed, Dec-Wed-2019 9:52am
Clear
Clear
 Wind from SSW
Wind: SSW 13 mph , 20 km/h
Temperature: 39°F , 4°C
Wind Chill: 31°F , -1°C
Dew Point: 25°F , -4°C
Humidity: 56%
Barometer: 30.45 inHg , 1031.2 hPa
Clouds: Clear
Visibility: 10 miles , 16 km
2019/12/11 15:52 KCNU 111552Z AUTO 21011KT 10SM CLR 04/M04 A3045 RMK AO2 SLP320 T00391044
KLWC - Lawrence, Kansas
Updated: Wed, Dec-Wed-2019 9:52am
Clear
Clear
 Wind from W
Wind: W 8 mph , 13 km/h
Temperature: 37°F , 3°C
Wind Chill: 31°F , -1°C
Dew Point: 23°F , -5°C
Humidity: 56%
Barometer: 30.42 inHg , 1030.1 hPa
Clouds: Clear
Visibility: 10 miles , 16 km
2019/12/11 15:52 KLWC 111552Z AUTO 27007KT 10SM CLR 03/M05 A3042 RMK AO2 SLP310 T00331050
KPPF - Parsons, Kansas
Updated: Wed, Dec-Wed-2019 9:52am
Clear
Clear
 Wind from SSW
Wind: SSW 10 mph , 17 km/h
Temperature: 37°F , 3°C
Wind Chill: 30°F , -1°C
Dew Point: 25°F , -4°C
Humidity: 60%
Barometer: 30.48 inHg , 1032.2 hPa
Clouds: Clear
Visibility: 10 miles , 16 km
2019/12/11 15:52 KPPF 111552Z AUTO 21009KT 10SM CLR 03/M04 A3048 RMK AO2 SLP329 T00281039
 
KIDP - Independence, Kansas
Updated: Wed, Dec-Wed-2019 9:55am
Clear
Clear
 Wind from SSW
Wind: SSW 15 mph , 24 km/h
Temperature: 39°F , 4°C
Wind Chill: 31°F , -1°C
Dew Point: 25°F , -4°C
Humidity: 56%
Barometer: 30.49 inHg , 1032.5 hPa
Clouds: Clear
Visibility: 10 miles , 16 km
2019/12/11 15:55 KIDP 111555Z AUTO 21013KT 10SM CLR 04/M04 A3049 RMK AO2 T00371038
KOJC - Olathe, Kansas
Updated: Wed, Dec-Wed-2019 9:53am
Clear
Clear
 Wind from W
Wind: W 12 mph , 19 km/h, Gust: 18 mph , 30 km/h
Temperature: 37°F , 3°C
Wind Chill: 29°F , -2°C
Dew Point: 21°F , -6°C
Humidity: 52%
Barometer: 30.41 inHg , 1029.8 hPa
Clouds: Clear
Visibility: 10 miles , 16 km
2019/12/11 15:53 KOJC 111553Z 26010G16KT 10SM CLR 03/M06 A3041 RMK AO2 SLP311 T00281061
KCFV - Coffeyville, Kansas
Updated: Wed, Dec-Wed-2019 9:52am
Clear
Clear
 Wind from SSW
Wind: SSW 10 mph , 17 km/h
Temperature: 37°F , 3°C
Wind Chill: 30°F , -1°C
Dew Point: 25°F , -4°C
Humidity: 60%
Barometer: 30.48 inHg , 1032.2 hPa
Clouds: Clear
Visibility: 10 miles , 16 km
2019/12/11 15:52 KCFV 111552Z AUTO 20009KT 10SM CLR 03/M04 A3048 RMK AO2 SLP330 T00331044
 
KPTS - Pittsburg, Kansas
Updated: Wed, Dec-Wed-2019 9:55am
Clear
Clear
 Wind from SW
Wind: SW 15 mph , 24 km/h, Gust: 20 mph , 31 km/h
Temperature: 37°F , 3°C
Wind Chill: 28°F , -2°C
Dew Point: 25°F , -4°C
Humidity: 60%
Barometer: 30.47 inHg , 1031.8 hPa
Clouds: Clear
Visibility: 10 miles , 16 km
2019/12/11 15:55 KPTS 111555Z AUTO 22013G17KT 10SM CLR 03/M04 A3047 RMK AO2 T00291043
KLGA - New York City, New York
Updated: Wed, Dec-Wed-2019 9:51am
Overcast
Overcast
 Wind from NNW
Wind: NNW 8 mph , 13 km/h
Temperature: 36°F , 2°C
Wind Chill: 30°F , -1°C
Dew Point: 27°F , -3°C
Humidity: 70%
Barometer: 30.31 inHg , 1026.4 hPa
Clouds: Overcast
Visibility: 10 miles , 16 km
Cloud details: Few Clouds 2100 ft
Overcast 5500 ft
2019/12/11 15:51 KLGA 111551Z 34007KT 10SM FEW021 OVC055 02/M03 A3031 RMK AO2 SLP262 T00221033
KCLT - Charlotte, North Carolina
Updated: Wed, Dec-Wed-2019 9:52am
Mostly cloudy
Mostly cloudy
 Wind from N
Wind: N 9 mph , 15 km/h
Temperature: 45°F , 7°C
Wind Chill: 40°F , 4°C
Dew Point: 28°F , -2°C
Humidity: 53%
Barometer: 30.41 inHg , 1029.8 hPa
Clouds: Mostly cloudy
Visibility: 10 miles , 16 km
Cloud details: Few Clouds 1500 ft
Partly cloudy 8000 ft
Mostly cloudy 25000 ft
2019/12/11 15:52 KCLT 111552Z 01008KT 10SM FEW015 SCT080 BKN250 07/M02 A3041 RMK AO2 SLP297 T00721017
 
KATL - Atlanta, Georgia
Updated: Wed, Dec-Wed-2019 9:52am
Mostly cloudy
Mostly cloudy
 Wind from NNW
Wind: NNW 10 mph , 17 km/h
Temperature: 37°F , 3°C
Wind Chill: 30°F , -1°C
Dew Point: 27°F , -3°C
Humidity: 65%
Barometer: 30.45 inHg , 1031.2 hPa
Clouds: Mostly cloudy
Visibility: 10 miles , 16 km
Cloud details: Few Clouds 12000 ft
Mostly cloudy 15000 ft
Mostly cloudy 24000 ft
2019/12/11 15:52 KATL 111552Z 33009KT 10SM FEW120 BKN150 BKN240 03/M03 A3045 RMK AO2 SLP320 VIRGA OHD ALQDS T00281033
KORL - Orlando, Florida
Updated: Wed, Dec-Wed-2019 10:00am
Mostly cloudy
Mostly cloudy
 Wind from calm
Wind: Calm
Temperature: 79°F , 26°C
Dew Point: 72°F , 22°C
Humidity: 79%
Barometer: 30.21 inHg , 1023 hPa
Clouds: Mostly cloudy
Visibility: 10 miles , 16 km
Cloud details: Mostly cloudy 1000 ft
2019/12/11 16:00 KORL 111600Z 00000KT 10SM BKN010 26/22 A3021 RMK AO2 T02610222
KMSP - Minneapolis, Minnesota
Updated: Wed, Dec-Wed-2019 9:53am
Clear
Clear
 Wind from NNW
Wind: NNW 7 mph , 11 km/h
Temperature: -0°F , -18°C
Wind Chill: -13°F , -25°C
Dew Point: -9°F , -23°C
Humidity: 65%
Barometer: 30.45 inHg , 1031.2 hPa
Clouds: Clear
Visibility: 10 miles , 16 km
2019/12/11 15:53 KMSP 111553Z 34006KT 10SM CLR M18/M23 A3045 RMK AO2 SLP338 T11831233
 
KORD - Chicago, Illinois
Updated: Wed, Dec-Wed-2019 9:51am
Mostly cloudy
Mostly cloudy
 Wind from W
Wind: W 10 mph , 17 km/h, Gust: 21 mph , 33 km/h
Temperature: 19°F , -7°C
Wind Chill: 8°F , -13°C
Dew Point: 10°F , -12°C
Humidity: 68%
Barometer: 30.41 inHg , 1029.8 hPa
Clouds: Mostly cloudy
Visibility: 10 miles , 16 km
Cloud details: Partly cloudy 2000 ft
Mostly cloudy 7500 ft
2019/12/11 15:51 KORD 111551Z 27009G18KT 10SM SCT020 BKN075 M07/M12 A3041 RMK AO2 SNE39 SLP310 P0000 T10721117
KDFW - Dallas/Ft Worth, Texas
Updated: Wed, Dec-Wed-2019 9:53am
Partly cloudy
Partly cloudy
 Wind from varies
Wind: varies 6 mph , 9 km/h
Temperature: 39°F , 4°C
Wind Chill: 35°F , 2°C
Dew Point: 36°F , 2°C
Humidity: 87%
Barometer: 30.55 inHg , 1034.5 hPa
Clouds: Partly cloudy
Visibility: 10 miles , 16 km
Cloud details: Partly cloudy 800 ft
2019/12/11 15:53 KDFW 111553Z VRB05KT 10SM SCT008 04/02 A3055 RMK AO2 SLP346 T00440017 $
KHOU - Houston, Texas
Updated: Wed, Dec-Wed-2019 9:53am
Few Clouds
Few Clouds
 Wind from N
Wind: N 12 mph , 19 km/h
Temperature: 48°F , 9°C
Wind Chill: 43°F , 6°C
Dew Point: 37°F , 3°C
Humidity: 66%
Barometer: 30.52 inHg , 1033.5 hPa
Clouds: Few Clouds
Visibility: 10 miles , 16 km
Cloud details: Few Clouds 2000 ft
2019/12/11 15:53 KHOU 111553Z 01010KT 10SM FEW020 09/03 A3052 RMK AO2 SLP338 T00890028
 
KDEN - Denver, Colorado
Updated: Wed, Dec-Wed-2019 9:53am
Mostly cloudy
Mostly cloudy
 Wind from SSW
Wind: SSW 12 mph , 19 km/h
Temperature: 39°F , 4°C
Wind Chill: 32°F , 0°C
Dew Point: 16°F , -9°C
Humidity: 39%
Barometer: 30.10 inHg , 1019.3 hPa
Clouds: Mostly cloudy
Visibility: 10 miles , 16 km
Cloud details: Few Clouds 16000 ft
Mostly cloudy 22000 ft
2019/12/11 15:53 KDEN 111553Z 20010KT 10SM FEW160 BKN220 04/M09 A3010 RMK AO2 SLP200 T00391089
KSFO - San Francisco, California
Updated: Wed, Dec-Wed-2019 9:56am
Mist, Overcast
Mist, Overcast
 Wind from SE
Wind: SE 6 mph , 9 km/h
Temperature: 54°F , 12°C
Dew Point: 50°F , 10°C
Humidity: 88%
Barometer: 30.21 inHg , 1023 hPa
Summary: Mist
Clouds: Overcast
Visibility: 5 miles , 8 km
Cloud details: Few Clouds 600 ft
Partly cloudy 1700 ft
Overcast 2500 ft
2019/12/11 15:56 KSFO 111556Z 14005KT 5SM BR FEW006 SCT017 OVC025 12/10 A3021 RMK AO2 RAE11 SLP230 P0001 T01170100
KLAX - Los Angeles, California
Updated: Wed, Dec-Wed-2019 9:53am
Mostly cloudy
Mostly cloudy
 Wind from calm
Wind: Calm
Temperature: 54°F , 12°C
Dew Point: 43°F , 6°C
Humidity: 67%
Barometer: 30.21 inHg , 1023 hPa
Clouds: Mostly cloudy
Visibility: 10 miles , 16 km
Cloud details: Few Clouds 900 ft
Partly cloudy 9000 ft
Mostly cloudy 14000 ft
Mostly cloudy 20000 ft
2019/12/11 15:53 KLAX 111553Z 00000KT 10SM FEW009 SCT090 BKN140 BKN200 12/06 A3021 RMK AO2 SLP230 T01170061 $